CFE25Q EGLC-LGSK
Flight info
| Callsign | CFE25Q |
|---|---|
| Flight time | 2h 59m |
| Altitude | 41000 |
| Route | ODUKU DCT UMTUM UL9 KONAN UL607 KOK DCT REMBA DCT LIRSU DCT NONKO DCT VIBOM DCT NOMBO DCT RIDAR DCT RADIZ DCT EVAXI DCT NIPEL DCT MONID DCT SOLGU DCT MEDUX UM867 KOGAT DCT ERANA UL737 TSL |
| Aircraft | E190/M-SDE3GILORVW/S |
Departure
| Time | 2026-04-15 06:45 |
|---|---|
| Airport | London City Airport (EGLC) |
Arrival
| Time | 2026-04-15 09:44 |
|---|---|
| Airport | Skiathos Island National Airport (LGSK) |
| Time | Latitude | Longitude | Altitude | Speed | Heading |
|---|---|---|---|---|---|
| 2026-04-15 06:25 | 51.50437 | 0.04759 | 24 ft | 0 kts | 314° |
| 2026-04-15 06:39 | 51.50442 | 0.04754 | 24 ft | 1 kts | 324° |
| 2026-04-15 06:40 | 51.50454 | 0.04754 | 24 ft | 2 kts | 12° |
| 2026-04-15 06:40 | 51.50459 | 0.04763 | 24 ft | 0 kts | 45° |
| 2026-04-15 06:40 | 51.50458 | 0.04764 | 24 ft | 0 kts | 56° |
| 2026-04-15 06:41 | 51.50465 | 0.04860 | 24 ft | 12 kts | 92° |
| 2026-04-15 06:41 | 51.50462 | 0.05004 | 27 ft | 14 kts | 92° |
| 2026-04-15 06:41 | 51.50450 | 0.05159 | 24 ft | 15 kts | 93° |
| 2026-04-15 06:41 | 51.50445 | 0.05331 | 24 ft | 16 kts | 92° |
| 2026-04-15 06:42 | 51.50439 | 0.05516 | 24 ft | 17 kts | 93° |
| 2026-04-15 06:42 | 51.50432 | 0.05715 | 25 ft | 18 kts | 92° |
| 2026-04-15 06:42 | 51.50426 | 0.05926 | 24 ft | 19 kts | 93° |
| 2026-04-15 06:42 | 51.50419 | 0.06149 | 24 ft | 21 kts | 93° |
| 2026-04-15 06:43 | 51.50411 | 0.06384 | 24 ft | 21 kts | 93° |
| 2026-04-15 06:43 | 51.50418 | 0.06567 | 24 ft | 11 kts | 51° |
| 2026-04-15 06:43 | 51.50485 | 0.06569 | 26 ft | 8 kts | 312° |
| 2026-04-15 06:43 | 51.50491 | 0.06527 | 24 ft | 0 kts | 273° |
| 2026-04-15 06:44 | 51.50501 | 0.06202 | 24 ft | 66 kts | 273° |
| 2026-04-15 06:44 | 51.50533 | 0.05051 | 24 ft | 136 kts | 273° |
| 2026-04-15 06:45 | 51.50605 | 0.03330 | 351 ft | 165 kts | 270° |
| 2026-04-15 06:45 | 51.50673 | 0.01365 | 886 ft | 194 kts | 269° |
| 2026-04-15 06:45 | 51.50844 | -0.00882 | 1788 ft | 211 kts | 287° |
| 2026-04-15 06:45 | 51.51817 | -0.02704 | 2661 ft | 230 kts | 323° |
| 2026-04-15 06:46 | 51.53400 | -0.03294 | 2909 ft | 240 kts | 6° |
| 2026-04-15 06:46 | 51.54948 | -0.02405 | 3162 ft | 239 kts | 24° |
| 2026-04-15 06:46 | 51.56376 | -0.01119 | 3082 ft | 232 kts | 39° |
| 2026-04-15 06:46 | 51.57382 | 0.00865 | 3006 ft | 232 kts | 69° |
| 2026-04-15 06:47 | 51.57885 | 0.03403 | 3047 ft | 240 kts | 79° |
| 2026-04-15 06:47 | 51.58275 | 0.06040 | 2978 ft | 244 kts | 81° |
| 2026-04-15 06:47 | 51.58615 | 0.08658 | 3062 ft | 237 kts | 89° |
| 2026-04-15 06:47 | 51.58222 | 0.11151 | 3652 ft | 230 kts | 130° |
| 2026-04-15 06:48 | 51.56981 | 0.12566 | 4408 ft | 217 kts | 165° |
| 2026-04-15 06:48 | 51.55523 | 0.13232 | 5134 ft | 219 kts | 167° |
| 2026-04-15 06:48 | 51.54082 | 0.14110 | 5835 ft | 222 kts | 161° |
| 2026-04-15 06:48 | 51.52738 | 0.15390 | 6508 ft | 230 kts | 145° |
| 2026-04-15 06:49 | 51.51683 | 0.17390 | 7120 ft | 239 kts | 127° |
| 2026-04-15 06:49 | 51.50911 | 0.19794 | 7694 ft | 245 kts | 120° |
| 2026-04-15 06:49 | 51.50206 | 0.22296 | 8261 ft | 247 kts | 121° |
| 2026-04-15 06:50 | 51.48638 | 0.27228 | 9386 ft | 250 kts | 124° |
| 2026-04-15 06:50 | 51.47802 | 0.29683 | 9986 ft | 251 kts | 125° |
| 2026-04-15 06:50 | 51.46963 | 0.32127 | 10481 ft | 255 kts | 125° |
| 2026-04-15 06:50 | 51.46096 | 0.34621 | 10998 ft | 258 kts | 125° |
| 2026-04-15 06:51 | 51.45203 | 0.37181 | 11532 ft | 261 kts | 124° |
| 2026-04-15 06:51 | 51.44324 | 0.39696 | 12077 ft | 264 kts | 124° |
| 2026-04-15 06:51 | 51.43405 | 0.42313 | 12652 ft | 267 kts | 124° |
| 2026-04-15 06:51 | 51.42496 | 0.44886 | 13238 ft | 271 kts | 124° |
| 2026-04-15 06:52 | 51.41558 | 0.47525 | 13848 ft | 274 kts | 125° |
| 2026-04-15 06:52 | 51.40527 | 0.50111 | 14360 ft | 277 kts | 129° |
| 2026-04-15 06:52 | 51.39461 | 0.52699 | 14954 ft | 280 kts | 127° |
| 2026-04-15 06:52 | 51.38410 | 0.55401 | 15254 ft | 296 kts | 126° |
| 2026-04-15 06:53 | 51.37306 | 0.58296 | 15471 ft | 313 kts | 125° |
| 2026-04-15 06:53 | 51.36164 | 0.61338 | 15770 ft | 324 kts | 125° |
| 2026-04-15 06:53 | 51.35013 | 0.64460 | 16257 ft | 327 kts | 124° |
| 2026-04-15 06:53 | 51.33865 | 0.67602 | 16735 ft | 329 kts | 124° |
| 2026-04-15 06:54 | 51.32697 | 0.70767 | 17004 ft | 332 kts | 124° |
| 2026-04-15 06:54 | 51.31509 | 0.73944 | 17455 ft | 334 kts | 125° |
| 2026-04-15 06:54 | 51.30307 | 0.77137 | 17914 ft | 337 kts | 125° |
| 2026-04-15 06:54 | 51.29090 | 0.80352 | 18350 ft | 339 kts | 125° |
| 2026-04-15 06:55 | 51.27862 | 0.83583 | 18753 ft | 341 kts | 125° |
| 2026-04-15 06:55 | 51.26623 | 0.86822 | 19187 ft | 343 kts | 126° |
| 2026-04-15 06:55 | 51.25370 | 0.90074 | 19610 ft | 345 kts | 126° |
| 2026-04-15 06:55 | 51.24107 | 0.93333 | 20036 ft | 346 kts | 126° |
| 2026-04-15 06:56 | 51.22833 | 0.96604 | 20437 ft | 349 kts | 125° |
| 2026-04-15 06:56 | 51.21541 | 0.99899 | 20788 ft | 351 kts | 125° |
| 2026-04-15 06:56 | 51.20519 | 1.03465 | 21102 ft | 358 kts | 109° |
| 2026-04-15 06:56 | 51.19943 | 1.07347 | 21443 ft | 361 kts | 103° |
| 2026-04-15 06:57 | 51.19467 | 1.11282 | 21743 ft | 363 kts | 103° |
| 2026-04-15 06:57 | 51.18987 | 1.15228 | 22044 ft | 364 kts | 103° |
| 2026-04-15 06:57 | 51.18481 | 1.19206 | 22312 ft | 366 kts | 104° |
| 2026-04-15 06:57 | 51.17961 | 1.23165 | 22585 ft | 367 kts | 104° |
| 2026-04-15 06:58 | 51.17427 | 1.27167 | 22891 ft | 366 kts | 104° |
| 2026-04-15 06:58 | 51.16917 | 1.30994 | 23885 ft | 343 kts | 104° |
| 2026-04-15 06:58 | 51.16434 | 1.34633 | 24548 ft | 333 kts | 104° |
| 2026-04-15 06:58 | 51.16124 | 1.38325 | 24811 ft | 338 kts | 98° |
| 2026-04-15 06:59 | 51.15932 | 1.42077 | 25048 ft | 342 kts | 96° |
| 2026-04-15 06:59 | 51.15763 | 1.45858 | 25297 ft | 344 kts | 96° |
| 2026-04-15 06:59 | 51.15594 | 1.49681 | 25561 ft | 346 kts | 96° |
| 2026-04-15 06:59 | 51.15415 | 1.53514 | 25842 ft | 348 kts | 96° |
| 2026-04-15 07:00 | 51.15222 | 1.57360 | 26113 ft | 349 kts | 96° |
| 2026-04-15 07:00 | 51.15028 | 1.61222 | 26374 ft | 351 kts | 96° |
| 2026-04-15 07:00 | 51.14835 | 1.65109 | 26518 ft | 356 kts | 96° |
| 2026-04-15 07:00 | 51.14636 | 1.69094 | 26531 ft | 365 kts | 96° |
| 2026-04-15 07:01 | 51.14434 | 1.73171 | 26550 ft | 373 kts | 96° |
| 2026-04-15 07:01 | 51.14229 | 1.77280 | 26641 ft | 380 kts | 96° |
| 2026-04-15 07:01 | 51.14016 | 1.81536 | 26804 ft | 393 kts | 96° |
| 2026-04-15 07:01 | 51.13796 | 1.85910 | 27205 ft | 399 kts | 96° |
| 2026-04-15 07:02 | 51.13572 | 1.90325 | 27692 ft | 401 kts | 95° |
| 2026-04-15 07:02 | 51.13345 | 1.94744 | 28243 ft | 401 kts | 95° |
| 2026-04-15 07:02 | 51.13118 | 1.99177 | 28779 ft | 401 kts | 95° |
| 2026-04-15 07:02 | 51.12887 | 2.03597 | 29320 ft | 401 kts | 96° |
| 2026-04-15 07:03 | 51.12653 | 2.08004 | 29893 ft | 400 kts | 96° |
| 2026-04-15 07:03 | 51.12416 | 2.12433 | 30328 ft | 401 kts | 96° |
| 2026-04-15 07:03 | 51.12177 | 2.16873 | 30641 ft | 405 kts | 96° |
| 2026-04-15 07:03 | 51.11934 | 2.21354 | 30970 ft | 408 kts | 96° |
| 2026-04-15 07:04 | 51.11689 | 2.25855 | 31321 ft | 410 kts | 96° |
| 2026-04-15 07:04 | 51.11438 | 2.30408 | 31583 ft | 414 kts | 96° |
| 2026-04-15 07:04 | 51.11187 | 2.34964 | 31984 ft | 414 kts | 96° |
| 2026-04-15 07:04 | 51.10930 | 2.39567 | 32175 ft | 419 kts | 95° |
| 2026-04-15 07:05 | 51.10670 | 2.44196 | 32526 ft | 420 kts | 95° |
| 2026-04-15 07:05 | 51.10408 | 2.48831 | 32802 ft | 423 kts | 95° |
| 2026-04-15 07:05 | 51.10142 | 2.53502 | 33051 ft | 426 kts | 95° |
| 2026-04-15 07:05 | 51.09874 | 2.58197 | 33407 ft | 425 kts | 95° |
| 2026-04-15 07:06 | 51.09601 | 2.62918 | 33558 ft | 430 kts | 95° |
| 2026-04-15 07:06 | 51.09098 | 2.67630 | 33650 ft | 436 kts | 104° |
| 2026-04-15 07:06 | 51.07376 | 2.77044 | 33698 ft | 451 kts | 108° |
| 2026-04-15 07:07 | 51.05574 | 2.86738 | 33756 ft | 464 kts | 107° |
| 2026-04-15 07:07 | 51.03747 | 2.96742 | 33824 ft | 476 kts | 106° |
| 2026-04-15 07:08 | 51.02822 | 3.01803 | 34087 ft | 476 kts | 106° |
| 2026-04-15 07:08 | 51.01911 | 3.06780 | 34398 ft | 474 kts | 107° |
| 2026-04-15 07:08 | 51.00989 | 3.11799 | 34731 ft | 472 kts | 106° |
| 2026-04-15 07:08 | 51.00071 | 3.16789 | 35092 ft | 469 kts | 106° |
| 2026-04-15 07:09 | 50.99157 | 3.21738 | 35448 ft | 466 kts | 106° |
| 2026-04-15 07:09 | 50.98246 | 3.26665 | 35740 ft | 465 kts | 106° |
| 2026-04-15 07:09 | 50.97331 | 3.31590 | 35970 ft | 466 kts | 106° |
| 2026-04-15 07:09 | 50.96413 | 3.36519 | 36197 ft | 466 kts | 105° |
| 2026-04-15 07:10 | 50.95494 | 3.41443 | 36445 ft | 466 kts | 105° |
| 2026-04-15 07:10 | 50.94571 | 3.46372 | 36684 ft | 466 kts | 105° |
| 2026-04-15 07:10 | 50.93649 | 3.51288 | 36919 ft | 466 kts | 105° |
| 2026-04-15 07:10 | 50.93036 | 3.54543 | 37069 ft | 466 kts | 106° |
| 2026-04-15 07:11 | 50.92107 | 3.59472 | 37291 ft | 466 kts | 105° |
| 2026-04-15 07:11 | 50.91178 | 3.64386 | 37534 ft | 466 kts | 105° |
| 2026-04-15 07:11 | 50.90248 | 3.69296 | 37754 ft | 466 kts | 106° |
| 2026-04-15 07:11 | 50.89315 | 3.74209 | 37977 ft | 466 kts | 106° |
| 2026-04-15 07:12 | 50.88378 | 3.79122 | 38222 ft | 466 kts | 105° |
| 2026-04-15 07:12 | 50.87441 | 3.84026 | 38425 ft | 465 kts | 105° |
| 2026-04-15 07:12 | 50.86503 | 3.88926 | 38636 ft | 465 kts | 105° |
| 2026-04-15 07:12 | 50.85561 | 3.93828 | 38815 ft | 465 kts | 105° |
| 2026-04-15 07:13 | 50.84618 | 3.98733 | 38971 ft | 465 kts | 105° |
| 2026-04-15 07:13 | 50.83675 | 4.03620 | 39121 ft | 465 kts | 105° |
| 2026-04-15 07:13 | 50.82730 | 4.08503 | 39273 ft | 464 kts | 105° |
| 2026-04-15 07:13 | 50.81783 | 4.13377 | 39422 ft | 464 kts | 105° |
| 2026-04-15 07:14 | 50.80852 | 4.18149 | 39555 ft | 464 kts | 105° |
| 2026-04-15 07:14 | 50.79905 | 4.23011 | 39690 ft | 463 kts | 105° |
| 2026-04-15 07:14 | 50.79026 | 4.27513 | 39886 ft | 461 kts | 105° |
| 2026-04-15 07:14 | 50.78053 | 4.32471 | 40030 ft | 461 kts | 105° |
| 2026-04-15 07:15 | 50.77102 | 4.37303 | 40156 ft | 461 kts | 105° |
| 2026-04-15 07:15 | 50.76199 | 4.41896 | 40300 ft | 460 kts | 105° |
| 2026-04-15 07:15 | 50.75250 | 4.46715 | 40428 ft | 460 kts | 105° |
| 2026-04-15 07:15 | 50.74313 | 4.51466 | 40557 ft | 459 kts | 105° |
| 2026-04-15 07:16 | 50.73368 | 4.56234 | 40679 ft | 459 kts | 105° |
| 2026-04-15 07:16 | 50.72411 | 4.61041 | 40799 ft | 459 kts | 105° |
| 2026-04-15 07:16 | 50.71467 | 4.65783 | 40918 ft | 459 kts | 105° |
| 2026-04-15 07:16 | 50.70525 | 4.70500 | 41073 ft | 458 kts | 105° |
| 2026-04-15 07:17 | 50.69575 | 4.75230 | 41435 ft | 446 kts | 105° |
| 2026-04-15 07:17 | 50.68640 | 4.79882 | 41312 ft | 443 kts | 105° |
| 2026-04-15 07:17 | 50.66793 | 4.89080 | 41238 ft | 439 kts | 105° |
| 2026-04-15 07:18 | 50.64379 | 4.97920 | 41264 ft | 442 kts | 114° |
| 2026-04-15 07:18 | 50.61715 | 5.06679 | 41219 ft | 442 kts | 114° |
| 2026-04-15 07:19 | 50.59090 | 5.15359 | 41226 ft | 440 kts | 113° |
| 2026-04-15 07:19 | 50.56461 | 5.24046 | 41233 ft | 438 kts | 113° |
| 2026-04-15 07:20 | 50.53852 | 5.32640 | 41226 ft | 436 kts | 113° |
| 2026-04-15 07:20 | 50.51239 | 5.41212 | 41243 ft | 433 kts | 114° |
| 2026-04-15 07:21 | 50.48640 | 5.49716 | 41253 ft | 437 kts | 114° |
| 2026-04-15 07:21 | 50.45992 | 5.58345 | 41238 ft | 442 kts | 113° |
| 2026-04-15 07:22 | 50.43320 | 5.67022 | 41236 ft | 441 kts | 113° |
| 2026-04-15 07:22 | 50.40648 | 5.75668 | 41228 ft | 440 kts | 113° |
| 2026-04-15 07:23 | 50.37980 | 5.84268 | 41244 ft | 438 kts | 113° |
| 2026-04-15 07:23 | 50.35318 | 5.92822 | 41225 ft | 436 kts | 113° |
| 2026-04-15 07:24 | 50.32660 | 6.01333 | 41238 ft | 434 kts | 113° |
| 2026-04-15 07:24 | 50.30008 | 6.09795 | 41222 ft | 432 kts | 113° |
| 2026-04-15 07:25 | 50.27362 | 6.18212 | 41231 ft | 431 kts | 113° |
| 2026-04-15 07:25 | 50.24701 | 6.26645 | 41242 ft | 435 kts | 113° |
| 2026-04-15 07:26 | 50.22004 | 6.35167 | 41224 ft | 439 kts | 113° |
| 2026-04-15 07:26 | 50.19309 | 6.43649 | 41248 ft | 439 kts | 112° |
| 2026-04-15 07:27 | 50.17304 | 6.52519 | 41212 ft | 432 kts | 102° |
| 2026-04-15 07:27 | 50.15619 | 6.61474 | 41228 ft | 430 kts | 102° |
| 2026-04-15 07:28 | 50.13903 | 6.70380 | 41226 ft | 428 kts | 103° |
| 2026-04-15 07:28 | 50.12179 | 6.79237 | 41240 ft | 426 kts | 103° |
| 2026-04-15 07:29 | 50.10453 | 6.88039 | 41242 ft | 426 kts | 103° |
| 2026-04-15 07:29 | 50.08709 | 6.96911 | 41248 ft | 431 kts | 103° |
| 2026-04-15 07:30 | 50.06944 | 7.05836 | 41231 ft | 432 kts | 103° |
| 2026-04-15 07:30 | 50.05170 | 7.14761 | 41239 ft | 431 kts | 103° |
| 2026-04-15 07:31 | 50.03393 | 7.23661 | 41241 ft | 429 kts | 103° |
| 2026-04-15 07:31 | 50.01619 | 7.32508 | 41258 ft | 427 kts | 103° |
| 2026-04-15 07:32 | 49.99847 | 7.41308 | 41249 ft | 425 kts | 103° |
| 2026-04-15 07:32 | 49.98090 | 7.49995 | 41260 ft | 423 kts | 103° |
| 2026-04-15 07:33 | 49.96325 | 7.58687 | 41263 ft | 422 kts | 103° |
| 2026-04-15 07:33 | 49.94546 | 7.67409 | 41288 ft | 426 kts | 103° |
| 2026-04-15 07:34 | 49.92739 | 7.76227 | 41277 ft | 430 kts | 103° |
| 2026-04-15 07:34 | 49.90921 | 7.85056 | 41278 ft | 429 kts | 103° |
| 2026-04-15 07:35 | 49.89104 | 7.93837 | 41270 ft | 427 kts | 103° |
| 2026-04-15 07:35 | 49.87288 | 8.02580 | 41279 ft | 424 kts | 103° |
| 2026-04-15 07:36 | 49.85475 | 8.11252 | 41277 ft | 422 kts | 103° |
| 2026-04-15 07:36 | 49.83666 | 8.19881 | 41285 ft | 422 kts | 103° |
| 2026-04-15 07:37 | 49.81839 | 8.28585 | 41291 ft | 428 kts | 103° |
| 2026-04-15 07:37 | 49.79978 | 8.37382 | 41270 ft | 431 kts | 105° |
| 2026-04-15 07:38 | 49.78699 | 8.41613 | 41291 ft | 436 kts | 117° |
| 2026-04-15 07:38 | 49.77075 | 8.45599 | 41298 ft | 440 kts | 120° |
| 2026-04-15 07:38 | 49.73642 | 8.53424 | 41262 ft | 438 kts | 121° |
| 2026-04-15 07:39 | 49.70266 | 8.61230 | 41265 ft | 436 kts | 120° |
| 2026-04-15 07:39 | 49.66968 | 8.68897 | 41268 ft | 435 kts | 120° |
| 2026-04-15 07:40 | 49.63787 | 8.76268 | 41271 ft | 433 kts | 120° |
| 2026-04-15 07:40 | 49.60452 | 8.83971 | 41271 ft | 431 kts | 120° |
| 2026-04-15 07:41 | 49.57177 | 8.91515 | 41267 ft | 430 kts | 120° |
| 2026-04-15 07:41 | 49.53847 | 8.99168 | 41291 ft | 433 kts | 120° |
| 2026-04-15 07:42 | 49.50497 | 9.06842 | 41265 ft | 439 kts | 120° |
| 2026-04-15 07:42 | 49.47284 | 9.14175 | 41256 ft | 440 kts | 120° |
| 2026-04-15 07:43 | 49.43928 | 9.21946 | 41244 ft | 438 kts | 119° |
| 2026-04-15 07:43 | 49.40601 | 9.29819 | 41268 ft | 442 kts | 120° |
| 2026-04-15 07:44 | 49.37207 | 9.37759 | 41250 ft | 448 kts | 120° |
| 2026-04-15 07:44 | 49.33754 | 9.45800 | 41256 ft | 454 kts | 120° |
| 2026-04-15 07:45 | 49.30248 | 9.53942 | 41236 ft | 461 kts | 120° |
| 2026-04-15 07:45 | 49.26690 | 9.62183 | 41246 ft | 466 kts | 120° |
| 2026-04-15 07:46 | 49.23082 | 9.70515 | 41232 ft | 472 kts | 120° |
| 2026-04-15 07:46 | 49.19441 | 9.78894 | 41286 ft | 473 kts | 120° |
| 2026-04-15 07:47 | 49.15798 | 9.87249 | 41252 ft | 471 kts | 120° |
| 2026-04-15 07:47 | 49.12167 | 9.95557 | 41270 ft | 469 kts | 120° |
| 2026-04-15 07:48 | 49.08566 | 10.03768 | 41249 ft | 468 kts | 120° |
| 2026-04-15 07:48 | 49.04587 | 10.11582 | 41293 ft | 469 kts | 131° |
| 2026-04-15 07:49 | 48.99958 | 10.18606 | 41256 ft | 469 kts | 133° |
| 2026-04-15 07:49 | 48.95326 | 10.25592 | 41262 ft | 468 kts | 132° |
| 2026-04-15 07:50 | 48.90724 | 10.32573 | 41258 ft | 467 kts | 132° |
| 2026-04-15 07:50 | 48.86114 | 10.39555 | 41256 ft | 467 kts | 132° |
| 2026-04-15 07:51 | 48.81515 | 10.46499 | 41264 ft | 467 kts | 132° |
| 2026-04-15 07:51 | 48.76874 | 10.53490 | 41270 ft | 472 kts | 132° |
| 2026-04-15 07:52 | 48.72233 | 10.60458 | 41255 ft | 469 kts | 132° |
| 2026-04-15 07:52 | 48.67591 | 10.67412 | 41243 ft | 470 kts | 133° |
| 2026-04-15 07:53 | 48.62945 | 10.74348 | 41243 ft | 469 kts | 133° |
| 2026-04-15 07:53 | 48.58378 | 10.81328 | 41250 ft | 465 kts | 128° |
| 2026-04-15 07:54 | 48.54328 | 10.88756 | 41251 ft | 463 kts | 126° |
| 2026-04-15 07:54 | 48.50312 | 10.96253 | 41245 ft | 461 kts | 126° |
| 2026-04-15 07:55 | 48.46332 | 11.03609 | 41235 ft | 461 kts | 126° |
| 2026-04-15 07:56 | 48.40333 | 11.14635 | 41234 ft | 460 kts | 126° |
| 2026-04-15 07:56 | 48.36302 | 11.22017 | 41232 ft | 459 kts | 126° |
| 2026-04-15 07:57 | 48.32248 | 11.29424 | 41228 ft | 459 kts | 127° |
| 2026-04-15 07:57 | 48.28238 | 11.36730 | 41229 ft | 458 kts | 127° |
| 2026-04-15 07:58 | 48.24187 | 11.44089 | 41231 ft | 457 kts | 127° |
| 2026-04-15 07:58 | 48.20138 | 11.51425 | 41234 ft | 456 kts | 127° |
| 2026-04-15 07:59 | 48.16095 | 11.58729 | 41228 ft | 455 kts | 127° |
| 2026-04-15 07:59 | 48.12741 | 11.64775 | 41236 ft | 458 kts | 127° |
| 2026-04-15 08:00 | 48.07954 | 11.73382 | 41241 ft | 463 kts | 127° |
| 2026-04-15 08:00 | 48.03819 | 11.80789 | 41225 ft | 464 kts | 127° |
| 2026-04-15 08:01 | 47.99682 | 11.88181 | 41233 ft | 463 kts | 127° |
| 2026-04-15 08:01 | 47.96249 | 11.94298 | 41236 ft | 463 kts | 127° |
| 2026-04-15 08:02 | 47.92118 | 12.01648 | 41235 ft | 461 kts | 128° |
| 2026-04-15 08:02 | 47.87990 | 12.08964 | 41235 ft | 460 kts | 128° |
| 2026-04-15 08:03 | 47.83869 | 12.16250 | 41242 ft | 459 kts | 128° |
| 2026-04-15 08:03 | 47.79753 | 12.23509 | 41239 ft | 459 kts | 128° |
| 2026-04-15 08:04 | 47.75635 | 12.30751 | 41241 ft | 458 kts | 128° |
| 2026-04-15 08:04 | 47.71517 | 12.37975 | 41236 ft | 458 kts | 128° |
| 2026-04-15 08:05 | 47.67425 | 12.45135 | 41233 ft | 458 kts | 128° |
| 2026-04-15 08:05 | 47.63297 | 12.52333 | 41243 ft | 458 kts | 130° |
| 2026-04-15 08:06 | 47.58518 | 12.58589 | 41226 ft | 461 kts | 140° |
| 2026-04-15 08:06 | 47.53452 | 12.64405 | 41250 ft | 460 kts | 140° |
| 2026-04-15 08:07 | 47.48435 | 12.70270 | 41228 ft | 460 kts | 140° |
| 2026-04-15 08:07 | 47.43436 | 12.76189 | 41197 ft | 460 kts | 140° |
| 2026-04-15 08:08 | 47.38426 | 12.82068 | 41208 ft | 460 kts | 140° |
| 2026-04-15 08:08 | 47.33419 | 12.87925 | 41203 ft | 459 kts | 140° |
| 2026-04-15 08:09 | 47.28423 | 12.93760 | 41219 ft | 458 kts | 140° |
| 2026-04-15 08:09 | 47.23423 | 12.99588 | 41212 ft | 458 kts | 140° |
| 2026-04-15 08:10 | 47.18417 | 13.05406 | 41198 ft | 459 kts | 140° |
| 2026-04-15 08:10 | 47.13414 | 13.11204 | 41205 ft | 458 kts | 140° |
| 2026-04-15 08:11 | 47.08404 | 13.16998 | 41209 ft | 459 kts | 141° |
| 2026-04-15 08:11 | 47.03390 | 13.22781 | 41210 ft | 458 kts | 141° |
| 2026-04-15 08:12 | 46.98379 | 13.28546 | 41210 ft | 458 kts | 141° |
| 2026-04-15 08:12 | 46.93355 | 13.34318 | 41206 ft | 459 kts | 141° |
| 2026-04-15 08:13 | 46.88367 | 13.40033 | 41213 ft | 459 kts | 141° |
| 2026-04-15 08:13 | 46.83343 | 13.45769 | 41213 ft | 459 kts | 141° |
| 2026-04-15 08:14 | 46.78323 | 13.51528 | 41209 ft | 458 kts | 136° |
| 2026-04-15 08:14 | 46.74123 | 13.58451 | 41196 ft | 456 kts | 128° |
| 2026-04-15 08:15 | 46.70148 | 13.65660 | 41216 ft | 456 kts | 128° |
| 2026-04-15 08:15 | 46.66197 | 13.72741 | 41215 ft | 456 kts | 128° |
| 2026-04-15 08:16 | 46.62164 | 13.79857 | 41220 ft | 456 kts | 128° |
| 2026-04-15 08:16 | 46.58167 | 13.86918 | 41234 ft | 456 kts | 128° |
| 2026-04-15 08:17 | 46.54140 | 13.94031 | 41231 ft | 456 kts | 129° |
| 2026-04-15 08:17 | 46.50096 | 14.01145 | 41226 ft | 456 kts | 128° |
| 2026-04-15 08:18 | 46.46019 | 14.08029 | 41237 ft | 455 kts | 132° |
| 2026-04-15 08:18 | 46.41583 | 14.14623 | 41225 ft | 454 kts | 133° |
| 2026-04-15 08:19 | 46.37261 | 14.21265 | 41235 ft | 453 kts | 132° |
| 2026-04-15 08:19 | 46.32998 | 14.27990 | 41238 ft | 453 kts | 132° |
| 2026-04-15 08:20 | 46.28735 | 14.34576 | 41230 ft | 454 kts | 133° |
| 2026-04-15 08:20 | 46.24409 | 14.41224 | 41242 ft | 454 kts | 133° |
| 2026-04-15 08:21 | 46.20093 | 14.47871 | 41239 ft | 454 kts | 133° |
| 2026-04-15 08:21 | 46.15773 | 14.54506 | 41238 ft | 454 kts | 133° |
| 2026-04-15 08:22 | 46.11446 | 14.61129 | 41234 ft | 454 kts | 133° |
| 2026-04-15 08:22 | 46.07136 | 14.67712 | 41231 ft | 455 kts | 133° |
| 2026-04-15 08:23 | 46.02796 | 14.74325 | 41229 ft | 455 kts | 133° |
| 2026-04-15 08:23 | 45.98440 | 14.80945 | 41229 ft | 453 kts | 133° |
| 2026-04-15 08:24 | 45.94100 | 14.87527 | 41220 ft | 453 kts | 133° |
| 2026-04-15 08:24 | 45.89759 | 14.94092 | 41229 ft | 453 kts | 133° |
| 2026-04-15 08:25 | 45.85426 | 15.00628 | 41237 ft | 453 kts | 133° |
| 2026-04-15 08:25 | 45.81074 | 15.07182 | 41240 ft | 453 kts | 133° |
| 2026-04-15 08:26 | 45.76721 | 15.13718 | 41238 ft | 452 kts | 134° |
| 2026-04-15 08:26 | 45.72387 | 15.20208 | 41236 ft | 451 kts | 134° |
| 2026-04-15 08:27 | 45.68055 | 15.26681 | 41233 ft | 451 kts | 134° |
| 2026-04-15 08:27 | 45.63691 | 15.33187 | 41247 ft | 454 kts | 134° |
| 2026-04-15 08:28 | 45.59309 | 15.39702 | 41238 ft | 453 kts | 134° |
| 2026-04-15 08:28 | 45.54963 | 15.46152 | 41224 ft | 454 kts | 134° |
| 2026-04-15 08:29 | 45.50572 | 15.52648 | 41242 ft | 452 kts | 134° |
| 2026-04-15 08:29 | 45.46246 | 15.59038 | 41230 ft | 451 kts | 134° |
| 2026-04-15 08:30 | 45.41888 | 15.65461 | 41225 ft | 451 kts | 134° |
| 2026-04-15 08:30 | 45.37519 | 15.71878 | 41223 ft | 451 kts | 134° |
| 2026-04-15 08:31 | 45.33149 | 15.78282 | 41227 ft | 451 kts | 135° |
| 2026-04-15 08:31 | 45.28759 | 15.84590 | 41210 ft | 451 kts | 134° |
| 2026-04-15 08:32 | 45.24425 | 15.91029 | 41211 ft | 450 kts | 134° |
| 2026-04-15 08:32 | 45.20072 | 15.97399 | 41211 ft | 450 kts | 135° |
| 2026-04-15 08:33 | 45.15685 | 16.03735 | 41209 ft | 450 kts | 135° |
| 2026-04-15 08:33 | 45.11303 | 16.10086 | 41209 ft | 450 kts | 135° |
| 2026-04-15 08:34 | 45.06929 | 16.16414 | 41210 ft | 450 kts | 135° |
| 2026-04-15 08:34 | 45.02551 | 16.22728 | 41210 ft | 450 kts | 135° |
| 2026-04-15 08:35 | 44.98169 | 16.29034 | 41201 ft | 448 kts | 135° |
| 2026-04-15 08:35 | 44.93884 | 16.35424 | 41214 ft | 448 kts | 131° |
| 2026-04-15 08:36 | 44.89908 | 16.42123 | 41201 ft | 448 kts | 130° |
| 2026-04-15 08:36 | 44.85812 | 16.48833 | 41195 ft | 448 kts | 132° |
| 2026-04-15 08:37 | 44.81683 | 16.55398 | 41197 ft | 448 kts | 132° |
| 2026-04-15 08:37 | 44.77598 | 16.61947 | 41203 ft | 448 kts | 132° |
| 2026-04-15 08:38 | 44.73488 | 16.68548 | 41187 ft | 448 kts | 132° |
| 2026-04-15 08:38 | 44.69375 | 16.75122 | 41192 ft | 447 kts | 132° |
| 2026-04-15 08:39 | 44.65267 | 16.81664 | 41194 ft | 447 kts | 132° |
| 2026-04-15 08:39 | 44.61148 | 16.88218 | 41191 ft | 447 kts | 132° |
| 2026-04-15 08:40 | 44.57042 | 16.94734 | 41183 ft | 446 kts | 132° |
| 2026-04-15 08:40 | 44.52924 | 17.01253 | 41188 ft | 446 kts | 132° |
| 2026-04-15 08:41 | 44.48811 | 17.07746 | 41183 ft | 445 kts | 132° |
| 2026-04-15 08:41 | 44.44808 | 17.14074 | 41173 ft | 445 kts | 131° |
| 2026-04-15 08:42 | 44.40609 | 17.20706 | 41170 ft | 445 kts | 132° |
| 2026-04-15 08:42 | 44.36480 | 17.27127 | 41162 ft | 444 kts | 132° |
| 2026-04-15 08:43 | 44.32361 | 17.33577 | 41165 ft | 444 kts | 132° |
| 2026-04-15 08:43 | 44.28253 | 17.39999 | 41175 ft | 444 kts | 132° |
| 2026-04-15 08:44 | 44.24158 | 17.46377 | 41158 ft | 446 kts | 132° |
| 2026-04-15 08:44 | 44.19990 | 17.52856 | 41168 ft | 452 kts | 133° |
| 2026-04-15 08:45 | 44.15786 | 17.59376 | 41146 ft | 452 kts | 133° |
| 2026-04-15 08:45 | 44.11594 | 17.65862 | 41145 ft | 450 kts | 133° |
| 2026-04-15 08:46 | 44.07645 | 17.72579 | 41143 ft | 449 kts | 127° |
| 2026-04-15 08:46 | 44.03947 | 17.79558 | 41152 ft | 446 kts | 128° |
| 2026-04-15 08:47 | 44.00146 | 17.86358 | 41136 ft | 446 kts | 129° |
| 2026-04-15 08:47 | 43.96306 | 17.93134 | 41165 ft | 449 kts | 129° |
| 2026-04-15 08:48 | 43.92455 | 17.99990 | 41150 ft | 451 kts | 128° |
| 2026-04-15 08:48 | 43.88592 | 18.06854 | 41153 ft | 452 kts | 129° |
| 2026-04-15 08:49 | 43.85350 | 18.12576 | 41148 ft | 454 kts | 129° |
| 2026-04-15 08:49 | 43.81479 | 18.19404 | 41165 ft | 449 kts | 129° |
| 2026-04-15 08:50 | 43.77632 | 18.26190 | 41168 ft | 447 kts | 129° |
| 2026-04-15 08:50 | 43.73762 | 18.32985 | 41177 ft | 451 kts | 129° |
| 2026-04-15 08:51 | 43.69870 | 18.39805 | 41146 ft | 452 kts | 129° |
| 2026-04-15 08:51 | 43.65971 | 18.46633 | 41136 ft | 454 kts | 129° |
| 2026-04-15 08:52 | 43.62055 | 18.53461 | 41133 ft | 451 kts | 129° |
| 2026-04-15 08:52 | 43.58168 | 18.60230 | 41119 ft | 449 kts | 129° |
| 2026-04-15 08:53 | 43.54320 | 18.66916 | 41139 ft | 450 kts | 129° |
| 2026-04-15 08:53 | 43.50414 | 18.73675 | 41100 ft | 454 kts | 129° |
| 2026-04-15 08:54 | 43.46480 | 18.80474 | 41120 ft | 453 kts | 129° |
| 2026-04-15 08:54 | 43.42554 | 18.87252 | 41127 ft | 452 kts | 129° |
| 2026-04-15 08:55 | 43.38632 | 18.93997 | 41115 ft | 449 kts | 129° |
| 2026-04-15 08:55 | 43.34736 | 19.00688 | 41116 ft | 448 kts | 130° |
| 2026-04-15 08:56 | 43.30846 | 19.07349 | 41124 ft | 447 kts | 129° |
| 2026-04-15 08:56 | 43.26946 | 19.14014 | 41132 ft | 448 kts | 130° |
| 2026-04-15 08:57 | 43.23055 | 19.20651 | 41117 ft | 449 kts | 130° |
| 2026-04-15 08:57 | 43.19102 | 19.27372 | 41115 ft | 450 kts | 130° |
| 2026-04-15 08:58 | 43.15202 | 19.33992 | 41115 ft | 449 kts | 130° |
| 2026-04-15 08:58 | 43.09311 | 19.43960 | 41110 ft | 449 kts | 130° |
| 2026-04-15 08:59 | 43.05389 | 19.50585 | 41111 ft | 447 kts | 130° |
| 2026-04-15 08:59 | 43.01467 | 19.57187 | 41111 ft | 447 kts | 130° |
| 2026-04-15 09:00 | 42.97540 | 19.63781 | 41107 ft | 448 kts | 130° |
| 2026-04-15 09:00 | 42.93610 | 19.70371 | 41105 ft | 447 kts | 130° |
| 2026-04-15 09:01 | 42.89678 | 19.76948 | 41107 ft | 447 kts | 130° |
| 2026-04-15 09:01 | 42.85753 | 19.83503 | 41111 ft | 447 kts | 131° |
| 2026-04-15 09:02 | 42.81815 | 19.90064 | 41114 ft | 446 kts | 131° |
| 2026-04-15 09:02 | 42.77878 | 19.96600 | 41123 ft | 447 kts | 131° |
| 2026-04-15 09:03 | 42.73939 | 20.03133 | 41117 ft | 447 kts | 131° |
| 2026-04-15 09:03 | 42.69998 | 20.09667 | 41130 ft | 447 kts | 131° |
| 2026-04-15 09:04 | 42.66083 | 20.16157 | 41131 ft | 446 kts | 131° |
| 2026-04-15 09:04 | 42.62145 | 20.22670 | 41149 ft | 446 kts | 131° |
| 2026-04-15 09:05 | 42.58203 | 20.29170 | 41145 ft | 446 kts | 131° |
| 2026-04-15 09:05 | 42.54265 | 20.35654 | 41149 ft | 445 kts | 131° |
| 2026-04-15 09:06 | 42.50324 | 20.42128 | 41158 ft | 445 kts | 131° |
| 2026-04-15 09:06 | 42.46382 | 20.48586 | 41157 ft | 444 kts | 131° |
| 2026-04-15 09:07 | 42.42437 | 20.55037 | 41158 ft | 444 kts | 131° |
| 2026-04-15 09:07 | 42.38495 | 20.61470 | 41158 ft | 444 kts | 131° |
| 2026-04-15 09:08 | 42.34554 | 20.67888 | 41158 ft | 444 kts | 131° |
| 2026-04-15 09:08 | 42.30601 | 20.74309 | 41166 ft | 443 kts | 131° |
| 2026-04-15 09:09 | 42.26659 | 20.80702 | 41170 ft | 443 kts | 131° |
| 2026-04-15 09:09 | 42.22713 | 20.87087 | 41173 ft | 443 kts | 131° |
| 2026-04-15 09:10 | 42.18780 | 20.93431 | 41175 ft | 442 kts | 132° |
| 2026-04-15 09:10 | 42.14835 | 20.99781 | 41173 ft | 441 kts | 131° |
| 2026-04-15 09:11 | 42.10830 | 21.06046 | 41200 ft | 439 kts | 137° |
| 2026-04-15 09:11 | 42.06425 | 21.11742 | 41179 ft | 439 kts | 139° |
| 2026-04-15 09:12 | 42.02005 | 21.17310 | 41191 ft | 438 kts | 138° |
| 2026-04-15 09:12 | 41.97540 | 21.22981 | 41186 ft | 438 kts | 138° |
| 2026-04-15 09:13 | 41.93138 | 21.28574 | 41202 ft | 438 kts | 138° |
| 2026-04-15 09:13 | 41.88706 | 21.34183 | 41206 ft | 438 kts | 138° |
| 2026-04-15 09:14 | 41.84275 | 21.39774 | 41199 ft | 438 kts | 138° |
| 2026-04-15 09:14 | 41.79837 | 21.45365 | 41195 ft | 438 kts | 138° |
| 2026-04-15 09:15 | 41.75404 | 21.50939 | 41203 ft | 437 kts | 138° |
| 2026-04-15 09:15 | 41.70971 | 21.56504 | 41198 ft | 437 kts | 138° |
| 2026-04-15 09:16 | 41.66536 | 21.62061 | 41205 ft | 437 kts | 138° |
| 2026-04-15 09:16 | 41.62090 | 21.67617 | 41201 ft | 437 kts | 138° |
| 2026-04-15 09:17 | 41.57650 | 21.73157 | 41197 ft | 437 kts | 138° |
| 2026-04-15 09:17 | 41.53203 | 21.78695 | 41200 ft | 437 kts | 139° |
| 2026-04-15 09:18 | 41.48739 | 21.84240 | 41206 ft | 440 kts | 139° |
| 2026-04-15 09:18 | 41.44219 | 21.89846 | 41205 ft | 447 kts | 139° |
| 2026-04-15 09:19 | 41.39654 | 21.95496 | 41198 ft | 448 kts | 139° |
| 2026-04-15 09:19 | 41.35152 | 22.01061 | 41200 ft | 447 kts | 139° |
| 2026-04-15 09:20 | 41.30591 | 22.06687 | 41199 ft | 447 kts | 139° |
| 2026-04-15 09:20 | 41.26025 | 22.12302 | 41201 ft | 447 kts | 139° |
| 2026-04-15 09:21 | 41.21478 | 22.17887 | 41204 ft | 446 kts | 140° |
| 2026-04-15 09:21 | 41.16911 | 22.23483 | 41196 ft | 446 kts | 140° |
| 2026-04-15 09:22 | 41.12261 | 22.28727 | 41222 ft | 443 kts | 144° |
| 2026-04-15 09:22 | 41.07341 | 22.33820 | 41216 ft | 444 kts | 144° |
| 2026-04-15 09:23 | 41.02533 | 22.38968 | 41217 ft | 444 kts | 143° |
| 2026-04-15 09:23 | 40.97745 | 22.44141 | 41215 ft | 444 kts | 143° |
| 2026-04-15 09:24 | 40.92949 | 22.49263 | 41203 ft | 443 kts | 143° |
| 2026-04-15 09:24 | 40.90528 | 22.51841 | 40719 ft | 448 kts | 144° |
| 2026-04-15 09:24 | 40.88124 | 22.54406 | 40474 ft | 443 kts | 144° |
| 2026-04-15 09:25 | 40.85706 | 22.56984 | 39763 ft | 447 kts | 144° |
| 2026-04-15 09:25 | 40.83298 | 22.59553 | 39205 ft | 443 kts | 144° |
| 2026-04-15 09:25 | 40.80900 | 22.62105 | 38545 ft | 440 kts | 144° |
| 2026-04-15 09:25 | 40.78553 | 22.64604 | 38016 ft | 433 kts | 144° |
| 2026-04-15 09:26 | 40.76204 | 22.67099 | 37453 ft | 433 kts | 145° |
| 2026-04-15 09:26 | 40.73843 | 22.69602 | 36851 ft | 438 kts | 145° |
| 2026-04-15 09:26 | 40.71503 | 22.72082 | 36292 ft | 440 kts | 146° |
| 2026-04-15 09:26 | 40.69072 | 22.74657 | 35676 ft | 442 kts | 146° |
| 2026-04-15 09:27 | 40.66681 | 22.77189 | 35098 ft | 441 kts | 147° |
| 2026-04-15 09:27 | 40.64288 | 22.79721 | 34520 ft | 441 kts | 148° |
| 2026-04-15 09:27 | 40.61952 | 22.82189 | 33893 ft | 443 kts | 148° |
| 2026-04-15 09:27 | 40.59492 | 22.84781 | 33357 ft | 442 kts | 148° |
| 2026-04-15 09:28 | 40.57076 | 22.87321 | 32742 ft | 445 kts | 147° |
| 2026-04-15 09:28 | 40.54652 | 22.89868 | 32144 ft | 447 kts | 147° |
| 2026-04-15 09:28 | 40.52252 | 22.92390 | 31569 ft | 448 kts | 146° |
| 2026-04-15 09:28 | 40.49812 | 22.94951 | 30942 ft | 450 kts | 146° |
| 2026-04-15 09:29 | 40.47367 | 22.97512 | 30358 ft | 450 kts | 146° |
| 2026-04-15 09:29 | 40.44713 | 22.99634 | 29774 ft | 444 kts | 159° |
| 2026-04-15 09:29 | 40.41852 | 23.01176 | 29159 ft | 447 kts | 163° |
| 2026-04-15 09:29 | 40.38928 | 23.02546 | 28571 ft | 446 kts | 163° |
| 2026-04-15 09:30 | 40.36019 | 23.03919 | 27990 ft | 442 kts | 163° |
| 2026-04-15 09:30 | 40.33143 | 23.05313 | 27397 ft | 439 kts | 162° |
| 2026-04-15 09:30 | 40.30294 | 23.06719 | 26818 ft | 436 kts | 162° |
| 2026-04-15 09:30 | 40.27460 | 23.08124 | 26242 ft | 434 kts | 162° |
| 2026-04-15 09:31 | 40.24648 | 23.09521 | 25665 ft | 432 kts | 162° |
| 2026-04-15 09:31 | 40.21851 | 23.10909 | 25096 ft | 428 kts | 162° |
| 2026-04-15 09:31 | 40.19078 | 23.12285 | 24534 ft | 425 kts | 162° |
| 2026-04-15 09:31 | 40.16322 | 23.13649 | 23972 ft | 423 kts | 162° |
| 2026-04-15 09:32 | 40.13578 | 23.15008 | 23367 ft | 419 kts | 162° |
| 2026-04-15 09:32 | 40.10863 | 23.16352 | 22854 ft | 416 kts | 162° |
| 2026-04-15 09:32 | 40.08166 | 23.17686 | 22303 ft | 413 kts | 161° |
| 2026-04-15 09:32 | 40.05490 | 23.19009 | 21759 ft | 410 kts | 161° |
| 2026-04-15 09:33 | 40.02834 | 23.20321 | 21220 ft | 406 kts | 161° |
| 2026-04-15 09:33 | 40.00199 | 23.21622 | 20680 ft | 403 kts | 161° |
| 2026-04-15 09:33 | 39.97582 | 23.22913 | 20151 ft | 400 kts | 161° |
| 2026-04-15 09:33 | 39.94987 | 23.24191 | 19621 ft | 398 kts | 161° |
| 2026-04-15 09:34 | 39.92407 | 23.25462 | 19092 ft | 395 kts | 161° |
| 2026-04-15 09:34 | 39.89846 | 23.26722 | 18568 ft | 392 kts | 161° |
| 2026-04-15 09:34 | 39.87301 | 23.27975 | 18038 ft | 388 kts | 161° |
| 2026-04-15 09:34 | 39.84787 | 23.29214 | 17528 ft | 386 kts | 161° |
| 2026-04-15 09:35 | 39.82284 | 23.30444 | 17018 ft | 383 kts | 161° |
| 2026-04-15 09:35 | 39.79797 | 23.31666 | 16519 ft | 380 kts | 161° |
| 2026-04-15 09:35 | 39.77329 | 23.32878 | 16011 ft | 378 kts | 161° |
| 2026-04-15 09:35 | 39.74884 | 23.34079 | 15509 ft | 375 kts | 162° |
| 2026-04-15 09:36 | 39.72485 | 23.35255 | 15023 ft | 372 kts | 162° |
| 2026-04-15 09:36 | 39.70044 | 23.36451 | 14520 ft | 369 kts | 162° |
| 2026-04-15 09:36 | 39.67650 | 23.37623 | 14021 ft | 366 kts | 162° |
| 2026-04-15 09:36 | 39.65310 | 23.38766 | 13546 ft | 362 kts | 162° |
| 2026-04-15 09:37 | 39.62959 | 23.39914 | 13069 ft | 359 kts | 162° |
| 2026-04-15 09:37 | 39.60633 | 23.41049 | 12601 ft | 355 kts | 162° |
| 2026-04-15 09:37 | 39.58330 | 23.42174 | 12125 ft | 352 kts | 162° |
| 2026-04-15 09:37 | 39.56053 | 23.43278 | 11648 ft | 346 kts | 162° |
| 2026-04-15 09:38 | 39.53796 | 23.44313 | 11205 ft | 343 kts | 163° |
| 2026-04-15 09:38 | 39.51543 | 23.45329 | 10748 ft | 342 kts | 163° |
| 2026-04-15 09:38 | 39.50031 | 23.46035 | 10445 ft | 341 kts | 162° |
| 2026-04-15 09:38 | 39.47821 | 23.47105 | 9980 ft | 337 kts | 161° |
| 2026-04-15 09:39 | 39.45697 | 23.48183 | 9548 ft | 325 kts | 160° |
| 2026-04-15 09:39 | 39.43654 | 23.49291 | 9117 ft | 312 kts | 159° |
| 2026-04-15 09:39 | 39.41706 | 23.50397 | 8716 ft | 300 kts | 158° |
| 2026-04-15 09:39 | 39.39827 | 23.51491 | 8255 ft | 292 kts | 157° |
| 2026-04-15 09:40 | 39.38015 | 23.52562 | 7909 ft | 281 kts | 157° |
| 2026-04-15 09:40 | 39.36262 | 23.53603 | 7507 ft | 273 kts | 157° |
| 2026-04-15 09:40 | 39.34559 | 23.54608 | 7145 ft | 266 kts | 157° |
| 2026-04-15 09:40 | 39.32895 | 23.55577 | 6811 ft | 259 kts | 157° |
| 2026-04-15 09:41 | 39.31212 | 23.56271 | 6468 ft | 251 kts | 169° |
| 2026-04-15 09:41 | 39.29520 | 23.56695 | 6143 ft | 245 kts | 168° |
| 2026-04-15 09:41 | 39.27878 | 23.57156 | 5842 ft | 238 kts | 166° |
| 2026-04-15 09:41 | 39.26296 | 23.57718 | 5524 ft | 234 kts | 162° |
| 2026-04-15 09:42 | 39.24800 | 23.58353 | 5242 ft | 216 kts | 160° |
| 2026-04-15 09:42 | 39.23461 | 23.58963 | 4975 ft | 190 kts | 159° |
| 2026-04-15 09:42 | 39.22291 | 23.59478 | 4643 ft | 169 kts | 164° |
| 2026-04-15 09:42 | 39.21203 | 23.59297 | 4361 ft | 154 kts | 211° |
| 2026-04-15 09:43 | 39.20507 | 23.58159 | 3457 ft | 181 kts | 258° |
| 2026-04-15 09:43 | 39.20586 | 23.56497 | 2400 ft | 201 kts | 284° |
| 2026-04-15 09:43 | 39.21037 | 23.54780 | 1797 ft | 191 kts | 294° |
| 2026-04-15 09:43 | 39.21559 | 23.53362 | 1540 ft | 168 kts | 298° |
| 2026-04-15 09:44 | 39.22144 | 23.52029 | 823 ft | 176 kts | 304° |
| 2026-04-15 09:44 | 39.22771 | 23.50652 | 179 ft | 176 kts | 301° |
| 2026-04-15 09:44 | 39.23286 | 23.49476 | 253 ft | 123 kts | 303° |
| 2026-04-15 09:44 | 39.23600 | 23.48643 | 10 ft | 40 kts | 78° |
| 2026-04-15 09:45 | 39.23592 | 23.48605 | 6 ft | 2 kts | 355° |